sensor_id;sensor_type;location;lat;lon;timestamp;temperature;humidity
71155;DHT22;59375;53.216;5.728;2023-05-10T00:01:27;12.90;99.90
71155;DHT22;59375;53.216;5.728;2023-05-10T00:03:53;12.90;99.90
71155;DHT22;59375;53.216;5.728;2023-05-10T00:06:18;12.90;99.90
71155;DHT22;59375;53.216;5.728;2023-05-10T00:08:44;12.90;99.90
71155;DHT22;59375;53.216;5.728;2023-05-10T00:11:11;12.80;99.90
71155;DHT22;59375;53.216;5.728;2023-05-10T00:13:37;12.80;99.90
71155;DHT22;59375;53.216;5.728;2023-05-10T00:16:02;12.80;99.90
71155;DHT22;59375;53.216;5.728;2023-05-10T00:18:28;12.80;99.90
71155;DHT22;59375;53.216;5.728;2023-05-10T00:20:53;12.80;99.90
71155;DHT22;59375;53.216;5.728;2023-05-10T00:23:19;12.80;99.90
71155;DHT22;59375;53.216;5.728;2023-05-10T00:25:44;12.80;99.90
71155;DHT22;59375;53.216;5.728;2023-05-10T00:28:10;12.70;99.90
71155;DHT22;59375;53.216;5.728;2023-05-10T00:30:35;12.70;99.90
71155;DHT22;59375;53.216;5.728;2023-05-10T00:33:01;12.70;99.90
71155;DHT22;59375;53.216;5.728;2023-05-10T00:35:26;12.70;99.90
71155;DHT22;59375;53.216;5.728;2023-05-10T00:37:52;12.70;99.90
71155;DHT22;59375;53.216;5.728;2023-05-10T00:40:17;12.70;99.90
71155;DHT22;59375;53.216;5.728;2023-05-10T00:42:43;12.70;99.90
71155;DHT22;59375;53.216;5.728;2023-05-10T00:45:08;12.60;99.90
71155;DHT22;59375;53.216;5.728;2023-05-10T00:47:34;12.60;99.90
71155;DHT22;59375;53.216;5.728;2023-05-10T00:50:01;12.60;99.90
71155;DHT22;59375;53.216;5.728;2023-05-10T00:52:27;12.60;99.90
71155;DHT22;59375;53.216;5.728;2023-05-10T00:54:53;12.50;99.90
71155;DHT22;59375;53.216;5.728;2023-05-10T00:57:19;12.50;99.90
71155;DHT22;59375;53.216;5.728;2023-05-10T00:59:45;12.50;99.90
71155;DHT22;59375;53.216;5.728;2023-05-10T01:02:11;12.40;99.90
71155;DHT22;59375;53.216;5.728;2023-05-10T01:04:36;12.40;99.90
71155;DHT22;59375;53.216;5.728;2023-05-10T01:07:02;12.30;99.90
71155;DHT22;59375;53.216;5.728;2023-05-10T01:09:28;12.30;99.90
71155;DHT22;59375;53.216;5.728;2023-05-10T01:11:53;12.30;99.90
71155;DHT22;59375;53.216;5.728;2023-05-10T01:14:19;12.30;99.90
71155;DHT22;59375;53.216;5.728;2023-05-10T01:16:45;12.30;99.90
71155;DHT22;59375;53.216;5.728;2023-05-10T01:19:17;12.20;99.90
71155;DHT22;59375;53.216;5.728;2023-05-10T01:21:48;12.30;99.90
71155;DHT22;59375;53.216;5.728;2023-05-10T01:32:16;12.30;99.90
71155;DHT22;59375;53.216;5.728;2023-05-10T01:37:21;12.30;99.90
71155;DHT22;59375;53.216;5.728;2023-05-10T01:40:05;12.30;99.90
71155;DHT22;59375;53.216;5.728;2023-05-10T01:42:35;12.40;99.90
71155;DHT22;59375;53.216;5.728;2023-05-10T01:47:43;12.30;99.90
71155;DHT22;59375;53.216;5.728;2023-05-10T01:50:17;12.30;99.90
71155;DHT22;59375;53.216;5.728;2023-05-10T01:52:46;12.30;99.90
71155;DHT22;59375;53.216;5.728;2023-05-10T01:55:14;12.40;99.90
71155;DHT22;59375;53.216;5.728;2023-05-10T01:57:40;12.40;99.90
71155;DHT22;59375;53.216;5.728;2023-05-10T02:00:07;12.40;99.90
71155;DHT22;59375;53.216;5.728;2023-05-10T02:02:35;12.40;99.90
71155;DHT22;59375;53.216;5.728;2023-05-10T02:05:02;12.40;99.90
71155;DHT22;59375;53.216;5.728;2023-05-10T02:07:28;12.40;99.90
71155;DHT22;59375;53.216;5.728;2023-05-10T02:09:53;12.40;99.90
71155;DHT22;59375;53.216;5.728;2023-05-10T02:12:20;12.40;99.90
71155;DHT22;59375;53.216;5.728;2023-05-10T02:14:47;12.40;99.90
71155;DHT22;59375;53.216;5.728;2023-05-10T02:17:13;12.40;99.90
71155;DHT22;59375;53.216;5.728;2023-05-10T02:19:39;12.30;99.90
71155;DHT22;59375;53.216;5.728;2023-05-10T02:22:05;12.30;99.90
71155;DHT22;59375;53.216;5.728;2023-05-10T02:24:32;12.30;99.90
71155;DHT22;59375;53.216;5.728;2023-05-10T02:26:58;12.20;99.90
71155;DHT22;59375;53.216;5.728;2023-05-10T02:29:24;12.20;99.90
71155;DHT22;59375;53.216;5.728;2023-05-10T02:31:51;12.20;99.90
71155;DHT22;59375;53.216;5.728;2023-05-10T02:34:17;12.20;99.90
71155;DHT22;59375;53.216;5.728;2023-05-10T02:36:43;12.20;99.90
71155;DHT22;59375;53.216;5.728;2023-05-10T02:39:09;12.10;99.90
71155;DHT22;59375;53.216;5.728;2023-05-10T02:41:37;12.20;99.90
71155;DHT22;59375;53.216;5.728;2023-05-10T02:44:04;12.10;99.90
71155;DHT22;59375;53.216;5.728;2023-05-10T02:46:32;12.10;99.90
71155;DHT22;59375;53.216;5.728;2023-05-10T02:48:57;12.10;99.90
71155;DHT22;59375;53.216;5.728;2023-05-10T02:51:24;12.10;99.90
71155;DHT22;59375;53.216;5.728;2023-05-10T02:53:50;12.10;99.90
71155;DHT22;59375;53.216;5.728;2023-05-10T02:56:23;12.10;99.90
71155;DHT22;59375;53.216;5.728;2023-05-10T02:58:50;12.10;99.90
71155;DHT22;59375;53.216;5.728;2023-05-10T03:01:16;12.00;99.90
71155;DHT22;59375;53.216;5.728;2023-05-10T03:03:41;12.00;99.90
71155;DHT22;59375;53.216;5.728;2023-05-10T03:06:07;12.00;99.90
71155;DHT22;59375;53.216;5.728;2023-05-10T03:08:32;12.00;99.90
71155;DHT22;59375;53.216;5.728;2023-05-10T03:11:02;12.00;99.90
71155;DHT22;59375;53.216;5.728;2023-05-10T03:13:44;12.10;99.90
71155;DHT22;59375;53.216;5.728;2023-05-10T03:16:14;12.00;99.90
71155;DHT22;59375;53.216;5.728;2023-05-10T03:21:25;12.00;99.90
71155;DHT22;59375;53.216;5.728;2023-05-10T03:23:57;12.00;99.90
71155;DHT22;59375;53.216;5.728;2023-05-10T03:26:24;12.10;99.90
71155;DHT22;59375;53.216;5.728;2023-05-10T03:28:50;12.00;99.90
71155;DHT22;59375;53.216;5.728;2023-05-10T03:31:17;12.00;99.90
71155;DHT22;59375;53.216;5.728;2023-05-10T03:33:49;12.00;99.90
71155;DHT22;59375;53.216;5.728;2023-05-10T03:36:15;12.00;99.90
71155;DHT22;59375;53.216;5.728;2023-05-10T03:38:41;12.00;99.90
71155;DHT22;59375;53.216;5.728;2023-05-10T03:41:06;12.00;99.90
71155;DHT22;59375;53.216;5.728;2023-05-10T03:43:32;12.00;99.90
71155;DHT22;59375;53.216;5.728;2023-05-10T03:45:57;12.00;99.90
71155;DHT22;59375;53.216;5.728;2023-05-10T03:48:23;11.90;99.90
71155;DHT22;59375;53.216;5.728;2023-05-10T03:50:48;12.00;99.90
71155;DHT22;59375;53.216;5.728;2023-05-10T03:53:14;12.00;99.90
71155;DHT22;59375;53.216;5.728;2023-05-10T03:55:40;11.90;99.90
71155;DHT22;59375;53.216;5.728;2023-05-10T03:58:05;12.00;99.90
71155;DHT22;59375;53.216;5.728;2023-05-10T04:00:31;12.00;99.90
71155;DHT22;59375;53.216;5.728;2023-05-10T04:02:57;11.90;99.90
71155;DHT22;59375;53.216;5.728;2023-05-10T04:05:23;11.90;99.90
71155;DHT22;59375;53.216;5.728;2023-05-10T04:07:48;11.90;99.90
71155;DHT22;59375;53.216;5.728;2023-05-10T04:10:15;11.90;99.90
71155;DHT22;59375;53.216;5.728;2023-05-10T04:12:41;11.90;99.90
71155;DHT22;59375;53.216;5.728;2023-05-10T04:15:10;11.90;99.90
71155;DHT22;59375;53.216;5.728;2023-05-10T04:17:35;11.90;99.90
71155;DHT22;59375;53.216;5.728;2023-05-10T04:20:01;11.90;99.90
71155;DHT22;59375;53.216;5.728;2023-05-10T04:22:26;11.90;99.90
71155;DHT22;59375;53.216;5.728;2023-05-10T04:24:53;11.90;99.90
71155;DHT22;59375;53.216;5.728;2023-05-10T04:27:18;11.90;99.90
71155;DHT22;59375;53.216;5.728;2023-05-10T04:29:43;11.90;99.90
71155;DHT22;59375;53.216;5.728;2023-05-10T04:32:09;11.90;99.90
71155;DHT22;59375;53.216;5.728;2023-05-10T04:34:35;11.90;99.90
71155;DHT22;59375;53.216;5.728;2023-05-10T04:37:01;11.90;99.90
71155;DHT22;59375;53.216;5.728;2023-05-10T04:39:26;11.90;99.90
71155;DHT22;59375;53.216;5.728;2023-05-10T04:41:52;11.90;99.90
71155;DHT22;59375;53.216;5.728;2023-05-10T04:44:17;11.90;99.90
71155;DHT22;59375;53.216;5.728;2023-05-10T04:46:43;11.90;99.90
71155;DHT22;59375;53.216;5.728;2023-05-10T04:49:08;11.90;99.90
71155;DHT22;59375;53.216;5.728;2023-05-10T04:51:33;12.00;99.90
71155;DHT22;59375;53.216;5.728;2023-05-10T04:53:59;12.00;99.90
71155;DHT22;59375;53.216;5.728;2023-05-10T04:56:24;12.00;99.90
71155;DHT22;59375;53.216;5.728;2023-05-10T04:58:50;12.00;99.90
71155;DHT22;59375;53.216;5.728;2023-05-10T05:01:15;12.00;99.90
71155;DHT22;59375;53.216;5.728;2023-05-10T05:03:41;12.00;99.90
71155;DHT22;59375;53.216;5.728;2023-05-10T05:06:07;12.00;99.90
71155;DHT22;59375;53.216;5.728;2023-05-10T05:08:33;12.00;99.90
71155;DHT22;59375;53.216;5.728;2023-05-10T05:10:58;12.00;99.90
71155;DHT22;59375;53.216;5.728;2023-05-10T05:13:24;12.00;99.90
71155;DHT22;59375;53.216;5.728;2023-05-10T05:15:50;12.00;99.90
71155;DHT22;59375;53.216;5.728;2023-05-10T05:18:15;12.00;99.90
71155;DHT22;59375;53.216;5.728;2023-05-10T05:20:41;12.00;99.90
71155;DHT22;59375;53.216;5.728;2023-05-10T05:23:06;12.00;99.90
71155;DHT22;59375;53.216;5.728;2023-05-10T05:25:32;12.00;99.90
71155;DHT22;59375;53.216;5.728;2023-05-10T05:27:57;12.00;99.90
71155;DHT22;59375;53.216;5.728;2023-05-10T05:30:23;12.10;99.90
71155;DHT22;59375;53.216;5.728;2023-05-10T05:32:48;12.10;99.90
71155;DHT22;59375;53.216;5.728;2023-05-10T05:35:13;12.10;99.90
71155;DHT22;59375;53.216;5.728;2023-05-10T05:37:40;12.10;99.90
71155;DHT22;59375;53.216;5.728;2023-05-10T05:40:06;12.10;99.90
71155;DHT22;59375;53.216;5.728;2023-05-10T05:42:32;12.10;99.90
71155;DHT22;59375;53.216;5.728;2023-05-10T05:44:57;12.20;99.90
71155;DHT22;59375;53.216;5.728;2023-05-10T05:47:23;12.20;99.90
71155;DHT22;59375;53.216;5.728;2023-05-10T05:49:48;12.20;99.90
71155;DHT22;59375;53.216;5.728;2023-05-10T05:52:14;12.20;99.90
71155;DHT22;59375;53.216;5.728;2023-05-10T05:54:39;12.20;99.90
71155;DHT22;59375;53.216;5.728;2023-05-10T05:57:05;12.20;99.90
71155;DHT22;59375;53.216;5.728;2023-05-10T05:59:30;12.20;99.90
71155;DHT22;59375;53.216;5.728;2023-05-10T06:01:56;12.20;99.90
71155;DHT22;59375;53.216;5.728;2023-05-10T06:04:21;12.20;99.90
71155;DHT22;59375;53.216;5.728;2023-05-10T06:06:47;12.20;99.90
71155;DHT22;59375;53.216;5.728;2023-05-10T06:09:12;12.20;99.90
71155;DHT22;59375;53.216;5.728;2023-05-10T06:11:38;12.30;99.90
71155;DHT22;59375;53.216;5.728;2023-05-10T06:14:04;12.30;99.90
71155;DHT22;59375;53.216;5.728;2023-05-10T06:16:30;12.30;99.90
71155;DHT22;59375;53.216;5.728;2023-05-10T06:18:55;12.30;99.90
71155;DHT22;59375;53.216;5.728;2023-05-10T06:21:21;12.30;99.90
71155;DHT22;59375;53.216;5.728;2023-05-10T06:23:46;12.30;99.90
71155;DHT22;59375;53.216;5.728;2023-05-10T06:26:12;12.30;99.90
71155;DHT22;59375;53.216;5.728;2023-05-10T06:28:40;12.30;99.90
71155;DHT22;59375;53.216;5.728;2023-05-10T06:31:06;12.30;99.90
71155;DHT22;59375;53.216;5.728;2023-05-10T06:33:32;12.30;99.90
71155;DHT22;59375;53.216;5.728;2023-05-10T06:35:57;12.40;99.90
71155;DHT22;59375;53.216;5.728;2023-05-10T06:38:23;12.40;99.90
71155;DHT22;59375;53.216;5.728;2023-05-10T06:40:48;12.40;99.90
71155;DHT22;59375;53.216;5.728;2023-05-10T06:43:14;12.40;99.90
71155;DHT22;59375;53.216;5.728;2023-05-10T06:45:39;12.40;99.90
71155;DHT22;59375;53.216;5.728;2023-05-10T06:48:06;12.40;99.90
71155;DHT22;59375;53.216;5.728;2023-05-10T06:50:31;12.50;99.90
71155;DHT22;59375;53.216;5.728;2023-05-10T06:52:57;12.40;99.90
71155;DHT22;59375;53.216;5.728;2023-05-10T06:55:23;12.50;99.90
71155;DHT22;59375;53.216;5.728;2023-05-10T06:57:48;12.50;99.90
71155;DHT22;59375;53.216;5.728;2023-05-10T07:00:14;12.50;99.90
71155;DHT22;59375;53.216;5.728;2023-05-10T07:02:40;12.60;99.90
71155;DHT22;59375;53.216;5.728;2023-05-10T07:05:05;12.60;99.90
71155;DHT22;59375;53.216;5.728;2023-05-10T07:07:31;12.60;99.90
71155;DHT22;59375;53.216;5.728;2023-05-10T07:09:56;12.70;99.90
71155;DHT22;59375;53.216;5.728;2023-05-10T07:12:23;12.70;99.90
71155;DHT22;59375;53.216;5.728;2023-05-10T07:14:48;12.70;99.90
71155;DHT22;59375;53.216;5.728;2023-05-10T07:17:13;12.60;99.90
71155;DHT22;59375;53.216;5.728;2023-05-10T07:19:39;12.60;99.90
71155;DHT22;59375;53.216;5.728;2023-05-10T07:22:05;12.70;99.90
71155;DHT22;59375;53.216;5.728;2023-05-10T07:24:31;12.70;99.90
71155;DHT22;59375;53.216;5.728;2023-05-10T07:26:57;12.70;99.90
71155;DHT22;59375;53.216;5.728;2023-05-10T07:29:22;12.70;99.90
71155;DHT22;59375;53.216;5.728;2023-05-10T07:31:48;12.70;99.90
71155;DHT22;59375;53.216;5.728;2023-05-10T07:34:13;12.70;99.90
71155;DHT22;59375;53.216;5.728;2023-05-10T07:36:39;12.70;99.90
71155;DHT22;59375;53.216;5.728;2023-05-10T07:39:04;12.80;99.90
71155;DHT22;59375;53.216;5.728;2023-05-10T07:41:30;12.80;99.90
71155;DHT22;59375;53.216;5.728;2023-05-10T07:43:55;12.80;99.90
71155;DHT22;59375;53.216;5.728;2023-05-10T07:46:21;12.90;99.90
71155;DHT22;59375;53.216;5.728;2023-05-10T07:48:46;13.00;99.90
71155;DHT22;59375;53.216;5.728;2023-05-10T07:51:12;13.10;99.90
71155;DHT22;59375;53.216;5.728;2023-05-10T07:53:37;13.20;99.90
71155;DHT22;59375;53.216;5.728;2023-05-10T07:56:23;13.20;99.90
71155;DHT22;59375;53.216;5.728;2023-05-10T07:58:50;13.20;99.90
71155;DHT22;59375;53.216;5.728;2023-05-10T08:01:15;13.20;99.90
71155;DHT22;59375;53.216;5.728;2023-05-10T08:03:41;13.20;99.90
71155;DHT22;59375;53.216;5.728;2023-05-10T08:06:06;13.20;99.90
71155;DHT22;59375;53.216;5.728;2023-05-10T08:08:31;13.20;99.90
71155;DHT22;59375;53.216;5.728;2023-05-10T08:10:57;13.20;99.90
71155;DHT22;59375;53.216;5.728;2023-05-10T08:13:22;13.10;99.90
71155;DHT22;59375;53.216;5.728;2023-05-10T08:15:48;13.10;99.90
71155;DHT22;59375;53.216;5.728;2023-05-10T08:18:13;13.10;99.90
71155;DHT22;59375;53.216;5.728;2023-05-10T08:20:39;13.10;99.90
71155;DHT22;59375;53.216;5.728;2023-05-10T08:23:04;13.10;99.90
71155;DHT22;59375;53.216;5.728;2023-05-10T08:25:30;13.10;99.90
71155;DHT22;59375;53.216;5.728;2023-05-10T08:27:56;13.10;99.90
71155;DHT22;59375;53.216;5.728;2023-05-10T08:30:21;13.10;99.90
71155;DHT22;59375;53.216;5.728;2023-05-10T08:32:47;13.00;99.90
71155;DHT22;59375;53.216;5.728;2023-05-10T08:35:12;13.10;99.90
71155;DHT22;59375;53.216;5.728;2023-05-10T08:37:38;13.10;99.90
71155;DHT22;59375;53.216;5.728;2023-05-10T08:40:03;13.20;99.90
71155;DHT22;59375;53.216;5.728;2023-05-10T08:42:30;13.20;99.90
71155;DHT22;59375;53.216;5.728;2023-05-10T08:44:56;13.30;99.90
71155;DHT22;59375;53.216;5.728;2023-05-10T08:47:22;13.40;99.90
71155;DHT22;59375;53.216;5.728;2023-05-10T08:49:48;13.50;99.90
71155;DHT22;59375;53.216;5.728;2023-05-10T08:52:16;13.60;99.90
71155;DHT22;59375;53.216;5.728;2023-05-10T08:54:42;13.70;99.90
71155;DHT22;59375;53.216;5.728;2023-05-10T08:57:09;13.70;99.90
71155;DHT22;59375;53.216;5.728;2023-05-10T08:59:35;13.70;99.90
71155;DHT22;59375;53.216;5.728;2023-05-10T09:02:00;13.80;99.90
71155;DHT22;59375;53.216;5.728;2023-05-10T09:04:27;13.80;99.90
71155;DHT22;59375;53.216;5.728;2023-05-10T09:06:52;13.80;99.90
71155;DHT22;59375;53.216;5.728;2023-05-10T09:09:18;13.90;99.90
71155;DHT22;59375;53.216;5.728;2023-05-10T09:11:44;13.80;99.90
71155;DHT22;59375;53.216;5.728;2023-05-10T09:14:10;13.90;99.90
71155;DHT22;59375;53.216;5.728;2023-05-10T09:16:37;13.90;99.90
71155;DHT22;59375;53.216;5.728;2023-05-10T09:19:03;13.90;99.90
71155;DHT22;59375;53.216;5.728;2023-05-10T09:21:28;13.90;99.90
71155;DHT22;59375;53.216;5.728;2023-05-10T09:23:55;13.90;99.90
71155;DHT22;59375;53.216;5.728;2023-05-10T09:26:24;13.90;99.90
71155;DHT22;59375;53.216;5.728;2023-05-10T09:31:15;13.80;99.90
71155;DHT22;59375;53.216;5.728;2023-05-10T09:33:43;13.80;99.90
71155;DHT22;59375;53.216;5.728;2023-05-10T09:36:09;13.80;99.90
71155;DHT22;59375;53.216;5.728;2023-05-10T09:38:44;13.80;99.90
71155;DHT22;59375;53.216;5.728;2023-05-10T09:41:15;13.80;99.90
71155;DHT22;59375;53.216;5.728;2023-05-10T09:43:41;13.80;99.90
71155;DHT22;59375;53.216;5.728;2023-05-10T09:46:08;13.80;99.90
71155;DHT22;59375;53.216;5.728;2023-05-10T09:48:33;13.90;99.90
71155;DHT22;59375;53.216;5.728;2023-05-10T09:50:59;14.00;99.90
71155;DHT22;59375;53.216;5.728;2023-05-10T09:53:24;14.00;99.90
71155;DHT22;59375;53.216;5.728;2023-05-10T09:55:50;14.00;99.90
71155;DHT22;59375;53.216;5.728;2023-05-10T09:58:16;13.90;99.90
71155;DHT22;59375;53.216;5.728;2023-05-10T10:00:45;13.90;99.90
71155;DHT22;59375;53.216;5.728;2023-05-10T10:03:13;13.90;99.90
71155;DHT22;59375;53.216;5.728;2023-05-10T10:05:40;13.90;99.90
71155;DHT22;59375;53.216;5.728;2023-05-10T10:08:05;13.90;99.90
71155;DHT22;59375;53.216;5.728;2023-05-10T10:10:31;14.00;99.90
71155;DHT22;59375;53.216;5.728;2023-05-10T10:12:57;14.10;99.90
71155;DHT22;59375;53.216;5.728;2023-05-10T10:15:23;14.10;99.90
71155;DHT22;59375;53.216;5.728;2023-05-10T10:17:50;14.30;99.90
71155;DHT22;59375;53.216;5.728;2023-05-10T10:20:15;14.40;99.90
71155;DHT22;59375;53.216;5.728;2023-05-10T10:22:41;14.50;99.90
71155;DHT22;59375;53.216;5.728;2023-05-10T10:25:09;14.60;99.90
71155;DHT22;59375;53.216;5.728;2023-05-10T10:27:48;14.80;99.90
71155;DHT22;59375;53.216;5.728;2023-05-10T10:35:30;15.20;99.90
71155;DHT22;59375;53.216;5.728;2023-05-10T10:37:55;15.20;99.90
71155;DHT22;59375;53.216;5.728;2023-05-10T10:40:25;15.30;99.90
71155;DHT22;59375;53.216;5.728;2023-05-10T10:42:51;15.30;99.90
71155;DHT22;59375;53.216;5.728;2023-05-10T10:45:16;15.40;99.90
71155;DHT22;59375;53.216;5.728;2023-05-10T10:47:42;15.50;99.90
71155;DHT22;59375;53.216;5.728;2023-05-10T10:50:08;15.40;99.90
71155;DHT22;59375;53.216;5.728;2023-05-10T11:00:22;15.50;99.90
71155;DHT22;59375;53.216;5.728;2023-05-10T11:02:52;15.40;99.90
71155;DHT22;59375;53.216;5.728;2023-05-10T11:05:25;15.40;99.90
71155;DHT22;59375;53.216;5.728;2023-05-10T11:07:58;15.50;99.90
71155;DHT22;59375;53.216;5.728;2023-05-10T11:10:25;15.50;99.90
71155;DHT22;59375;53.216;5.728;2023-05-10T11:12:51;15.60;99.90
71155;DHT22;59375;53.216;5.728;2023-05-10T11:15:17;15.70;99.90
71155;DHT22;59375;53.216;5.728;2023-05-10T11:17:43;15.70;99.90
71155;DHT22;59375;53.216;5.728;2023-05-10T11:22:53;15.90;99.90
71155;DHT22;59375;53.216;5.728;2023-05-10T11:25:19;15.90;99.90
71155;DHT22;59375;53.216;5.728;2023-05-10T11:27:47;15.90;99.90
71155;DHT22;59375;53.216;5.728;2023-05-10T11:30:13;15.90;99.90
71155;DHT22;59375;53.216;5.728;2023-05-10T11:32:39;16.00;99.90
71155;DHT22;59375;53.216;5.728;2023-05-10T11:35:08;16.10;99.90
71155;DHT22;59375;53.216;5.728;2023-05-10T11:37:33;16.20;99.90
71155;DHT22;59375;53.216;5.728;2023-05-10T11:39:59;16.10;99.90
71155;DHT22;59375;53.216;5.728;2023-05-10T11:42:25;16.10;99.90
71155;DHT22;59375;53.216;5.728;2023-05-10T11:44:50;16.20;99.90
71155;DHT22;59375;53.216;5.728;2023-05-10T11:47:16;16.20;99.90
71155;DHT22;59375;53.216;5.728;2023-05-10T11:49:44;16.10;99.90
71155;DHT22;59375;53.216;5.728;2023-05-10T11:52:10;16.30;99.90
71155;DHT22;59375;53.216;5.728;2023-05-10T11:54:45;16.40;99.90
71155;DHT22;59375;53.216;5.728;2023-05-10T11:57:10;16.50;99.90
71155;DHT22;59375;53.216;5.728;2023-05-10T11:59:36;16.70;99.90
71155;DHT22;59375;53.216;5.728;2023-05-10T12:02:01;16.80;99.90
71155;DHT22;59375;53.216;5.728;2023-05-10T12:04:28;16.90;99.90
71155;DHT22;59375;53.216;5.728;2023-05-10T12:06:54;17.00;99.90
71155;DHT22;59375;53.216;5.728;2023-05-10T12:09:20;17.00;99.90
71155;DHT22;59375;53.216;5.728;2023-05-10T12:11:45;17.00;99.90
71155;DHT22;59375;53.216;5.728;2023-05-10T12:14:11;17.10;99.90
71155;DHT22;59375;53.216;5.728;2023-05-10T12:16:36;17.10;99.90
71155;DHT22;59375;53.216;5.728;2023-05-10T12:19:02;17.10;99.90
71155;DHT22;59375;53.216;5.728;2023-05-10T12:21:28;17.10;99.90
71155;DHT22;59375;53.216;5.728;2023-05-10T12:23:58;17.10;99.90
71155;DHT22;59375;53.216;5.728;2023-05-10T12:26:25;17.10;99.90
71155;DHT22;59375;53.216;5.728;2023-05-10T12:28:52;17.20;99.90
71155;DHT22;59375;53.216;5.728;2023-05-10T12:31:18;17.20;99.90
71155;DHT22;59375;53.216;5.728;2023-05-10T12:33:44;17.30;99.90
71155;DHT22;59375;53.216;5.728;2023-05-10T12:36:11;17.40;99.90
71155;DHT22;59375;53.216;5.728;2023-05-10T12:38:37;17.60;99.90
71155;DHT22;59375;53.216;5.728;2023-05-10T12:41:05;17.50;99.90
71155;DHT22;59375;53.216;5.728;2023-05-10T12:43:31;17.50;99.90
71155;DHT22;59375;53.216;5.728;2023-05-10T12:45:56;17.40;99.90
71155;DHT22;59375;53.216;5.728;2023-05-10T12:48:22;17.40;99.90
71155;DHT22;59375;53.216;5.728;2023-05-10T12:50:48;17.30;99.90
71155;DHT22;59375;53.216;5.728;2023-05-10T12:53:14;17.20;99.90
71155;DHT22;59375;53.216;5.728;2023-05-10T12:55:41;17.20;99.90
71155;DHT22;59375;53.216;5.728;2023-05-10T12:58:06;17.40;99.90
71155;DHT22;59375;53.216;5.728;2023-05-10T13:00:32;17.70;99.90
71155;DHT22;59375;53.216;5.728;2023-05-10T13:02:57;17.90;99.90
71155;DHT22;59375;53.216;5.728;2023-05-10T13:05:22;17.90;99.90
71155;DHT22;59375;53.216;5.728;2023-05-10T13:07:48;17.80;99.90
71155;DHT22;59375;53.216;5.728;2023-05-10T13:10:13;17.80;99.90
71155;DHT22;59375;53.216;5.728;2023-05-10T13:12:39;17.70;99.90
71155;DHT22;59375;53.216;5.728;2023-05-10T13:15:04;17.60;99.90
71155;DHT22;59375;53.216;5.728;2023-05-10T13:17:30;17.60;99.90
71155;DHT22;59375;53.216;5.728;2023-05-10T13:19:55;17.60;99.90
71155;DHT22;59375;53.216;5.728;2023-05-10T13:22:21;17.50;99.90
71155;DHT22;59375;53.216;5.728;2023-05-10T13:24:46;17.70;99.90
71155;DHT22;59375;53.216;5.728;2023-05-10T13:27:12;17.80;99.90
71155;DHT22;59375;53.216;5.728;2023-05-10T13:29:37;17.90;99.90
71155;DHT22;59375;53.216;5.728;2023-05-10T13:32:03;17.80;99.90
71155;DHT22;59375;53.216;5.728;2023-05-10T13:34:29;17.50;99.90
71155;DHT22;59375;53.216;5.728;2023-05-10T13:36:54;17.20;99.90
71155;DHT22;59375;53.216;5.728;2023-05-10T13:39:21;17.30;99.90
71155;DHT22;59375;53.216;5.728;2023-05-10T13:41:47;17.50;99.90
71155;DHT22;59375;53.216;5.728;2023-05-10T13:44:12;17.60;99.90
71155;DHT22;59375;53.216;5.728;2023-05-10T13:46:39;17.60;99.90
71155;DHT22;59375;53.216;5.728;2023-05-10T13:49:04;17.50;99.90
71155;DHT22;59375;53.216;5.728;2023-05-10T13:51:30;17.60;99.90
71155;DHT22;59375;53.216;5.728;2023-05-10T13:53:57;17.50;99.90
71155;DHT22;59375;53.216;5.728;2023-05-10T13:56:22;17.60;99.90
71155;DHT22;59375;53.216;5.728;2023-05-10T13:58:48;17.70;99.90
71155;DHT22;59375;53.216;5.728;2023-05-10T14:01:13;17.90;99.90
71155;DHT22;59375;53.216;5.728;2023-05-10T14:03:39;17.90;99.90
71155;DHT22;59375;53.216;5.728;2023-05-10T14:06:04;18.00;99.90
71155;DHT22;59375;53.216;5.728;2023-05-10T14:08:30;17.90;99.90
71155;DHT22;59375;53.216;5.728;2023-05-10T14:10:55;17.80;99.90
71155;DHT22;59375;53.216;5.728;2023-05-10T14:13:22;17.80;99.90
71155;DHT22;59375;53.216;5.728;2023-05-10T14:15:48;17.80;99.90
71155;DHT22;59375;53.216;5.728;2023-05-10T14:18:14;17.70;99.90
71155;DHT22;59375;53.216;5.728;2023-05-10T14:20:39;17.60;99.90
71155;DHT22;59375;53.216;5.728;2023-05-10T14:23:05;17.40;99.90
71155;DHT22;59375;53.216;5.728;2023-05-10T14:25:31;17.10;99.90
71155;DHT22;59375;53.216;5.728;2023-05-10T14:27:56;16.80;99.90
71155;DHT22;59375;53.216;5.728;2023-05-10T14:30:21;16.70;99.90
71155;DHT22;59375;53.216;5.728;2023-05-10T14:32:47;16.60;99.90
71155;DHT22;59375;53.216;5.728;2023-05-10T14:35:12;16.50;99.90
71155;DHT22;59375;53.216;5.728;2023-05-10T14:37:38;16.60;99.90
71155;DHT22;59375;53.216;5.728;2023-05-10T14:40:03;16.40;99.90
71155;DHT22;59375;53.216;5.728;2023-05-10T14:42:29;16.30;99.90
71155;DHT22;59375;53.216;5.728;2023-05-10T14:44:56;16.10;99.90
71155;DHT22;59375;53.216;5.728;2023-05-10T14:47:21;16.00;99.90
71155;DHT22;59375;53.216;5.728;2023-05-10T14:49:49;15.90;99.90
71155;DHT22;59375;53.216;5.728;2023-05-10T14:52:14;15.80;99.90
71155;DHT22;59375;53.216;5.728;2023-05-10T14:54:40;15.80;99.90
71155;DHT22;59375;53.216;5.728;2023-05-10T14:57:06;15.70;99.90
71155;DHT22;59375;53.216;5.728;2023-05-10T14:59:31;15.70;99.90
71155;DHT22;59375;53.216;5.728;2023-05-10T15:01:57;15.70;99.90
71155;DHT22;59375;53.216;5.728;2023-05-10T15:04:22;15.60;99.90
71155;DHT22;59375;53.216;5.728;2023-05-10T15:06:48;15.60;99.90
71155;DHT22;59375;53.216;5.728;2023-05-10T15:09:13;15.60;99.90
71155;DHT22;59375;53.216;5.728;2023-05-10T15:11:38;15.70;99.90
71155;DHT22;59375;53.216;5.728;2023-05-10T15:14:04;15.80;99.90
71155;DHT22;59375;53.216;5.728;2023-05-10T15:16:29;15.90;99.90
71155;DHT22;59375;53.216;5.728;2023-05-10T15:18:58;16.00;99.90
71155;DHT22;59375;53.216;5.728;2023-05-10T15:21:23;15.80;99.90
71155;DHT22;59375;53.216;5.728;2023-05-10T15:23:49;15.70;99.90
71155;DHT22;59375;53.216;5.728;2023-05-10T15:26:14;15.50;99.90
71155;DHT22;59375;53.216;5.728;2023-05-10T15:28:40;15.40;99.90
71155;DHT22;59375;53.216;5.728;2023-05-10T15:31:07;15.20;99.90
71155;DHT22;59375;53.216;5.728;2023-05-10T15:33:32;15.20;99.90
71155;DHT22;59375;53.216;5.728;2023-05-10T15:35:57;15.10;99.90
71155;DHT22;59375;53.216;5.728;2023-05-10T15:38:23;15.00;99.90
71155;DHT22;59375;53.216;5.728;2023-05-10T15:40:48;15.00;99.90
71155;DHT22;59375;53.216;5.728;2023-05-10T15:43:14;15.10;99.90
71155;DHT22;59375;53.216;5.728;2023-05-10T15:45:40;15.30;99.90
71155;DHT22;59375;53.216;5.728;2023-05-10T15:48:05;15.30;99.90
71155;DHT22;59375;53.216;5.728;2023-05-10T15:50:31;15.20;99.90
71155;DHT22;59375;53.216;5.728;2023-05-10T15:52:57;15.10;99.90
71155;DHT22;59375;53.216;5.728;2023-05-10T15:55:22;14.90;99.90
71155;DHT22;59375;53.216;5.728;2023-05-10T15:57:48;14.90;99.90